createdAt,value
2023-05-19T00:00:33.295Z,7.00
2023-05-19T00:01:37.769Z,6.90
2023-05-19T00:02:40.951Z,6.90
2023-05-19T00:03:52.767Z,6.90
2023-05-19T00:04:55.597Z,6.90
2023-05-19T00:06:01.701Z,6.80
2023-05-19T00:07:05.696Z,6.80
2023-05-19T00:08:10.765Z,6.80
2023-05-19T00:09:13.301Z,6.70
2023-05-19T00:10:18.727Z,6.70
2023-05-19T00:11:23.011Z,6.60
2023-05-19T00:12:25.645Z,6.60
2023-05-19T00:13:29.154Z,6.60
2023-05-19T00:14:31.844Z,6.60
2023-05-19T00:15:35.656Z,6.50
2023-05-19T00:16:38.891Z,6.50
2023-05-19T00:17:42.586Z,6.50
2023-05-19T00:18:44.837Z,6.50
2023-05-19T00:19:47.253Z,6.50
2023-05-19T00:20:49.467Z,6.50
2023-05-19T00:21:51.690Z,6.50
2023-05-19T00:22:53.837Z,6.60
2023-05-19T00:23:56.284Z,6.60
2023-05-19T00:24:58.457Z,6.60
2023-05-19T00:26:02.030Z,6.60
2023-05-19T00:27:04.686Z,6.60
2023-05-19T00:28:06.886Z,6.60
2023-05-19T00:29:09.080Z,6.60
2023-05-19T00:30:11.813Z,6.70
2023-05-19T00:31:13.972Z,6.60
2023-05-19T00:32:16.159Z,6.60
2023-05-19T00:33:18.325Z,6.60
2023-05-19T00:34:20.570Z,6.60
2023-05-19T00:35:23.684Z,6.60
2023-05-19T00:36:26.214Z,6.60
2023-05-19T00:37:28.366Z,6.60
2023-05-19T00:38:31.700Z,6.60
2023-05-19T00:39:33.920Z,6.60
2023-05-19T00:40:36.638Z,6.50
2023-05-19T00:41:40.342Z,6.50
2023-05-19T00:42:42.629Z,6.50
2023-05-19T00:43:44.994Z,6.50
2023-05-19T00:44:47.114Z,6.50
2023-05-19T00:45:49.278Z,6.40
2023-05-19T00:46:51.469Z,6.40
2023-05-19T00:47:53.687Z,6.40
2023-05-19T00:48:55.894Z,6.40
2023-05-19T00:49:58.019Z,6.40
2023-05-19T00:51:04.807Z,6.40
2023-05-19T00:52:07.619Z,6.40
2023-05-19T00:53:10.170Z,6.40
2023-05-19T00:54:12.537Z,6.40
2023-05-19T00:55:15.427Z,6.40
2023-05-19T00:56:18.546Z,6.30
2023-05-19T00:57:22.547Z,6.30
2023-05-19T00:58:29.322Z,6.30
2023-05-19T00:59:31.518Z,6.30
2023-05-19T01:00:35.237Z,6.30
2023-05-19T01:01:37.791Z,6.30
2023-05-19T01:02:40.819Z,6.30
2023-05-19T01:03:44.682Z,6.30
2023-05-19T01:04:47.683Z,6.20
2023-05-19T01:05:49.916Z,6.20
2023-05-19T01:06:54.929Z,6.10
2023-05-19T01:07:57.065Z,6.10
2023-05-19T01:08:59.470Z,6.20
2023-05-19T01:10:01.737Z,6.20
2023-05-19T01:11:04.423Z,6.10
2023-05-19T01:12:07.612Z,6.10
2023-05-19T01:13:11.442Z,6.10
2023-05-19T01:14:13.708Z,6.10
2023-05-19T01:15:16.217Z,6.10
2023-05-19T01:16:25.191Z,6.10
2023-05-19T01:17:34.635Z,6.00
2023-05-19T01:18:44.570Z,6.00
2023-05-19T01:20:05.253Z,6.00
2023-05-19T01:21:36.308Z,5.90
2023-05-19T01:23:08.656Z,5.90
2023-05-19T01:24:34.500Z,5.90
2023-05-19T01:26:09.691Z,5.90
2023-05-19T01:27:49.126Z,5.80
2023-05-19T01:29:09.068Z,5.80
2023-05-19T01:30:28.778Z,5.70
2023-05-19T01:32:48.802Z,5.70
2023-05-19T01:33:53.120Z,5.60
2023-05-19T01:34:57.179Z,5.60
2023-05-19T01:36:00.469Z,5.60
2023-05-19T01:37:04.038Z,5.60
2023-05-19T01:38:09.217Z,5.60
2023-05-19T01:39:12.472Z,5.60
2023-05-19T01:40:15.050Z,5.60
2023-05-19T01:41:19.205Z,5.60
2023-05-19T01:42:22.428Z,5.60
2023-05-19T01:43:26.348Z,5.50
2023-05-19T01:44:29.363Z,5.50
2023-05-19T01:45:34.485Z,5.50
2023-05-19T01:46:37.904Z,5.50
2023-05-19T01:47:42.553Z,5.50
2023-05-19T01:48:45.394Z,5.50
2023-05-19T01:49:47.595Z,5.40
2023-05-19T01:50:49.861Z,5.40
2023-05-19T01:51:53.468Z,5.40
2023-05-19T01:52:56.340Z,5.30
2023-05-19T01:53:58.580Z,5.30
2023-05-19T01:55:00.869Z,5.30
2023-05-19T01:56:03.901Z,5.30
2023-05-19T01:57:16.025Z,5.40
2023-05-19T01:58:25.421Z,5.40
2023-05-19T01:59:41.468Z,5.40
2023-05-19T02:00:54.443Z,5.40
2023-05-19T02:02:00.839Z,5.40
2023-05-19T02:03:16.340Z,5.30
2023-05-19T02:04:29.348Z,5.40
2023-05-19T02:05:38.666Z,5.30
2023-05-19T02:06:46.366Z,5.30
2023-05-19T02:07:57.447Z,5.30
2023-05-19T02:09:03.883Z,5.30
2023-05-19T02:10:11.255Z,5.30
2023-05-19T02:11:18.853Z,5.40
2023-05-19T02:12:25.987Z,5.40
2023-05-19T02:13:34.011Z,5.40
2023-05-19T02:14:40.261Z,5.40
2023-05-19T02:15:44.243Z,5.30
2023-05-19T02:16:49.227Z,5.30
2023-05-19T02:17:54.916Z,5.30
2023-05-19T02:18:57.535Z,5.30
2023-05-19T02:19:59.946Z,5.30
2023-05-19T02:21:02.234Z,5.30
2023-05-19T02:22:05.088Z,5.40
2023-05-19T02:23:07.526Z,5.40
2023-05-19T02:24:09.753Z,5.30
2023-05-19T02:25:12.470Z,5.40
2023-05-19T02:26:14.970Z,5.40
2023-05-19T02:27:17.275Z,5.40
2023-05-19T02:28:19.403Z,5.40
2023-05-19T02:29:21.590Z,5.40
2023-05-19T02:30:23.808Z,5.40
2023-05-19T02:31:26.143Z,5.40
2023-05-19T02:32:29.728Z,5.40
2023-05-19T02:33:32.456Z,5.40
2023-05-19T02:34:34.673Z,5.40
2023-05-19T02:35:37.006Z,5.40
2023-05-19T02:36:41.434Z,5.40
2023-05-19T02:37:43.626Z,5.40
2023-05-19T02:38:45.873Z,5.50
2023-05-19T02:39:48.002Z,5.50
2023-05-19T02:40:51.854Z,5.50
2023-05-19T02:41:54.018Z,5.50
2023-05-19T02:42:56.192Z,5.50
2023-05-19T02:43:58.356Z,5.50
2023-05-19T02:45:00.887Z,5.50
2023-05-19T02:46:03.195Z,5.50
2023-05-19T02:47:05.733Z,5.50
2023-05-19T02:48:09.526Z,5.50
2023-05-19T02:49:11.749Z,5.50
2023-05-19T02:50:14.936Z,5.50
2023-05-19T02:51:17.433Z,5.50
2023-05-19T02:52:19.624Z,5.50
2023-05-19T02:53:22.420Z,5.50
2023-05-19T02:54:24.613Z,5.50
2023-05-19T02:55:26.859Z,5.50
2023-05-19T02:56:29.003Z,5.50
2023-05-19T02:57:31.902Z,5.50
2023-05-19T02:58:34.237Z,5.60
2023-05-19T02:59:36.707Z,5.60
2023-05-19T03:00:38.993Z,5.60
2023-05-19T03:01:41.232Z,5.60
2023-05-19T03:02:44.259Z,5.70
2023-05-19T03:03:48.025Z,5.70
2023-05-19T03:04:51.022Z,5.70
2023-05-19T03:05:53.816Z,5.70
2023-05-19T03:06:55.995Z,5.70
2023-05-19T03:07:58.330Z,5.70
2023-05-19T03:09:00.495Z,5.80
2023-05-19T03:10:04.198Z,5.80
2023-05-19T03:11:06.532Z,5.80
2023-05-19T03:12:08.878Z,5.80
2023-05-19T03:13:11.364Z,5.90
2023-05-19T03:14:16.403Z,5.90
2023-05-19T03:15:19.333Z,5.90
2023-05-19T03:16:22.070Z,5.90
2023-05-19T03:17:24.301Z,6.00
2023-05-19T03:18:26.947Z,6.00
2023-05-19T03:19:32.552Z,6.00
2023-05-19T03:20:35.161Z,6.10
2023-05-19T03:21:37.577Z,6.10
2023-05-19T03:22:39.735Z,6.10
2023-05-19T03:23:41.908Z,6.10
2023-05-19T03:24:44.129Z,6.20
2023-05-19T03:25:46.297Z,6.20
2023-05-19T03:26:48.526Z,6.20
2023-05-19T03:27:50.749Z,6.20
2023-05-19T03:28:53.027Z,6.20
2023-05-19T03:29:55.308Z,6.30
2023-05-19T03:30:57.514Z,6.30
2023-05-19T03:32:00.033Z,6.40
2023-05-19T03:33:03.253Z,6.40
2023-05-19T03:34:05.662Z,6.50
2023-05-19T03:35:09.741Z,6.50
2023-05-19T03:36:12.737Z,6.50
2023-05-19T03:37:14.964Z,6.50
2023-05-19T03:38:17.139Z,6.50
2023-05-19T03:39:19.290Z,6.60
2023-05-19T03:40:21.595Z,6.60
2023-05-19T03:41:23.806Z,6.60
2023-05-19T03:42:26.031Z,6.70
2023-05-19T03:43:28.166Z,6.70
2023-05-19T03:44:30.317Z,6.70
2023-05-19T03:45:32.436Z,6.70
2023-05-19T03:46:34.589Z,6.80
2023-05-19T03:47:36.735Z,6.80
2023-05-19T03:48:38.921Z,6.90
2023-05-19T03:49:41.044Z,6.90
2023-05-19T03:50:44.882Z,7.00
2023-05-19T03:51:48.422Z,7.00
2023-05-19T03:52:50.622Z,7.10
2023-05-19T03:53:52.810Z,7.10
2023-05-19T03:54:55.029Z,7.20
2023-05-19T03:55:57.309Z,7.20
2023-05-19T03:57:00.698Z,7.30
2023-05-19T03:58:02.881Z,7.30
2023-05-19T03:59:07.125Z,7.40
2023-05-19T04:00:11.584Z,7.40
2023-05-19T04:01:14.025Z,7.50
2023-05-19T04:02:16.569Z,7.60
2023-05-19T04:03:19.079Z,7.70
2023-05-19T04:04:21.802Z,7.80
2023-05-19T04:05:24.529Z,7.90
2023-05-19T04:06:28.070Z,7.90
2023-05-19T04:07:30.257Z,8.00
2023-05-19T04:08:32.595Z,8.10
2023-05-19T04:09:35.599Z,8.10
2023-05-19T04:10:37.893Z,8.20
2023-05-19T04:11:40.396Z,8.20
2023-05-19T04:12:42.703Z,8.30
2023-05-19T04:13:45.279Z,8.30
2023-05-19T04:14:47.504Z,8.30
2023-05-19T04:15:49.774Z,8.40
2023-05-19T04:16:52.390Z,8.40
2023-05-19T04:17:54.573Z,8.40
2023-05-19T04:18:57.093Z,8.50
2023-05-19T04:19:59.754Z,8.50
2023-05-19T04:21:01.905Z,8.50
2023-05-19T04:22:05.888Z,8.60
2023-05-19T04:23:08.748Z,8.60
2023-05-19T04:24:10.931Z,8.60
2023-05-19T04:25:14.492Z,8.60
2023-05-19T04:26:17.999Z,8.70
2023-05-19T04:27:20.380Z,8.70
2023-05-19T04:28:23.972Z,8.70
2023-05-19T04:29:26.174Z,8.80
2023-05-19T04:30:28.659Z,8.80
2023-05-19T04:31:31.445Z,8.90
2023-05-19T04:32:33.945Z,8.90
2023-05-19T04:33:36.314Z,9.00
2023-05-19T04:34:40.439Z,9.00
2023-05-19T04:35:44.188Z,9.00
2023-05-19T04:36:46.359Z,9.00
2023-05-19T04:37:49.964Z,9.00
2023-05-19T04:38:54.921Z,9.10
2023-05-19T04:39:57.251Z,9.10
2023-05-19T04:41:01.297Z,9.10
2023-05-19T04:42:03.547Z,9.20
2023-05-19T04:43:07.343Z,9.20
2023-05-19T04:44:09.569Z,9.30
2023-05-19T04:45:15.125Z,9.30
2023-05-19T04:46:17.350Z,9.30
2023-05-19T04:47:21.679Z,9.40
2023-05-19T04:48:24.225Z,9.40
2023-05-19T04:49:26.378Z,9.40
2023-05-19T04:50:31.042Z,9.50
2023-05-19T04:51:33.498Z,9.50
2023-05-19T04:52:36.276Z,9.50
2023-05-19T04:53:40.663Z,9.50
2023-05-19T04:54:42.795Z,9.50
2023-05-19T04:55:45.404Z,9.60
2023-05-19T04:56:47.572Z,9.60
2023-05-19T04:57:50.116Z,9.70
2023-05-19T04:58:53.804Z,9.60
2023-05-19T05:00:00.367Z,9.60
2023-05-19T05:01:02.619Z,9.60
2023-05-19T05:02:04.918Z,9.60
2023-05-19T05:03:08.163Z,9.70
2023-05-19T05:04:10.710Z,9.70
2023-05-19T05:05:12.970Z,9.80
2023-05-19T05:06:15.404Z,9.80
2023-05-19T05:07:17.592Z,9.80
2023-05-19T05:08:22.998Z,9.80
2023-05-19T05:09:26.573Z,9.90
2023-05-19T05:10:28.798Z,9.90
2023-05-19T05:11:31.646Z,9.90
2023-05-19T05:12:36.335Z,9.90
2023-05-19T05:13:39.124Z,10.00
2023-05-19T05:14:41.808Z,10.00
2023-05-19T05:15:44.526Z,10.00
2023-05-19T05:16:47.394Z,10.00
2023-05-19T05:17:50.183Z,10.00
2023-05-19T05:18:52.961Z,10.10
2023-05-19T05:19:56.005Z,10.10
2023-05-19T05:20:58.946Z,10.10
2023-05-19T05:22:01.833Z,10.10
2023-05-19T05:23:04.586Z,10.20
2023-05-19T05:24:08.524Z,10.20
2023-05-19T05:25:14.079Z,10.20
2023-05-19T05:26:28.622Z,10.20
2023-05-19T05:27:31.284Z,10.20
2023-05-19T05:28:33.403Z,10.20
2023-05-19T05:29:35.586Z,10.30
2023-05-19T05:30:38.007Z,10.30
2023-05-19T05:31:40.200Z,10.30
2023-05-19T05:32:42.570Z,10.30
2023-05-19T05:33:45.603Z,10.40
2023-05-19T05:34:47.931Z,10.40
2023-05-19T05:35:50.632Z,10.40
2023-05-19T05:36:52.759Z,10.40
2023-05-19T05:37:55.069Z,10.40
2023-05-19T05:38:57.364Z,10.40
2023-05-19T05:39:59.547Z,10.50
2023-05-19T05:41:03.530Z,10.50
2023-05-19T05:42:06.032Z,10.50
2023-05-19T05:43:08.246Z,10.50
2023-05-19T05:44:10.451Z,10.60
2023-05-19T05:45:13.140Z,10.60
2023-05-19T05:46:15.394Z,10.60
2023-05-19T05:47:18.112Z,10.60
2023-05-19T05:48:20.904Z,10.60
2023-05-19T05:49:23.596Z,10.70
2023-05-19T05:50:26.563Z,10.70
2023-05-19T05:51:29.225Z,10.60
2023-05-19T05:52:32.437Z,10.60
2023-05-19T05:53:42.090Z,10.60
2023-05-19T05:54:44.851Z,10.60
2023-05-19T05:55:48.331Z,10.70
2023-05-19T05:56:52.693Z,10.70
2023-05-19T05:57:56.994Z,10.80
2023-05-19T05:58:59.289Z,10.80
2023-05-19T06:00:02.510Z,10.80
2023-05-19T06:01:05.521Z,10.80
2023-05-19T06:02:08.648Z,10.80
2023-05-19T06:03:11.528Z,10.80
2023-05-19T06:04:14.021Z,10.90
2023-05-19T06:05:16.651Z,10.90
2023-05-19T06:06:18.882Z,10.90
2023-05-19T06:07:21.930Z,10.90
2023-05-19T06:08:24.174Z,10.90
2023-05-19T06:09:26.615Z,10.90
2023-05-19T06:10:28.940Z,11.00
2023-05-19T06:11:31.378Z,11.00
2023-05-19T06:12:35.373Z,11.10
2023-05-19T06:13:38.694Z,11.10
2023-05-19T06:14:40.988Z,11.20
2023-05-19T06:15:43.307Z,11.20
2023-05-19T06:16:45.862Z,11.30
2023-05-19T06:17:48.710Z,11.30
2023-05-19T06:18:51.004Z,11.30
2023-05-19T06:19:53.238Z,11.30
2023-05-19T06:20:55.525Z,11.30
2023-05-19T06:21:57.670Z,11.30
2023-05-19T06:23:00.942Z,11.30
2023-05-19T06:24:03.161Z,11.40
2023-05-19T06:25:06.215Z,11.40
2023-05-19T06:26:08.538Z,11.50
2023-05-19T06:27:11.129Z,11.50
2023-05-19T06:28:14.802Z,11.50
2023-05-19T06:29:17.277Z,11.50
2023-05-19T06:30:19.646Z,11.50
2023-05-19T06:31:22.284Z,11.50
2023-05-19T06:32:24.625Z,11.60
2023-05-19T06:33:29.089Z,11.60
2023-05-19T06:34:32.337Z,11.60
2023-05-19T06:35:34.595Z,11.70
2023-05-19T06:36:36.956Z,11.70
2023-05-19T06:37:40.414Z,11.70
2023-05-19T06:38:42.597Z,11.80
2023-05-19T06:39:44.780Z,11.80
2023-05-19T06:40:48.267Z,11.80
2023-05-19T06:41:50.501Z,12.00
2023-05-19T06:42:52.730Z,12.10
2023-05-19T06:43:56.628Z,12.30
2023-05-19T06:44:58.914Z,12.40
2023-05-19T06:46:01.292Z,12.30
2023-05-19T06:47:03.662Z,12.30
2023-05-19T06:48:06.406Z,12.30
2023-05-19T06:49:08.613Z,12.20
2023-05-19T06:50:11.209Z,12.20
2023-05-19T06:51:13.433Z,12.10
2023-05-19T06:52:16.135Z,12.20
2023-05-19T06:53:20.990Z,12.20
2023-05-19T06:54:23.214Z,12.20
2023-05-19T06:55:25.653Z,12.20
2023-05-19T06:56:27.865Z,12.20
2023-05-19T06:57:30.057Z,12.10
2023-05-19T06:58:32.370Z,12.10
2023-05-19T06:59:37.616Z,12.10
2023-05-19T07:00:39.817Z,12.10
2023-05-19T07:01:42.039Z,12.10
2023-05-19T07:02:44.411Z,12.20
2023-05-19T07:03:47.026Z,12.20
2023-05-19T07:04:51.400Z,12.20
2023-05-19T07:05:53.782Z,12.20
2023-05-19T07:06:56.017Z,12.30
2023-05-19T07:07:58.229Z,12.30
2023-05-19T07:09:00.434Z,12.40
2023-05-19T07:10:03.190Z,12.40
2023-05-19T07:11:06.121Z,12.50
2023-05-19T07:12:08.353Z,12.50
2023-05-19T07:13:10.528Z,12.50
2023-05-19T07:14:12.727Z,12.50
2023-05-19T07:15:16.537Z,12.50
2023-05-19T07:16:18.762Z,12.50
2023-05-19T07:17:20.989Z,12.50
2023-05-19T07:18:23.345Z,12.50
2023-05-19T07:19:25.753Z,12.50
2023-05-19T07:20:28.029Z,12.50
2023-05-19T07:21:30.180Z,12.40
2023-05-19T07:22:35.095Z,12.40
2023-05-19T07:23:37.248Z,12.50
2023-05-19T07:24:39.555Z,12.50
2023-05-19T07:25:41.719Z,12.50
2023-05-19T07:26:44.151Z,12.50
2023-05-19T07:27:46.378Z,12.50
2023-05-19T07:28:48.560Z,12.50
2023-05-19T07:29:50.731Z,12.60
2023-05-19T07:30:54.320Z,12.60
2023-05-19T07:31:58.112Z,12.50
2023-05-19T07:33:00.623Z,12.50
2023-05-19T07:34:03.616Z,12.50
2023-05-19T07:35:07.008Z,12.50
2023-05-19T07:36:09.403Z,12.60
2023-05-19T07:37:11.585Z,12.60
2023-05-19T07:38:13.921Z,12.70
2023-05-19T07:39:17.982Z,12.80
2023-05-19T07:40:20.764Z,12.80
2023-05-19T07:41:23.221Z,12.80
2023-05-19T07:42:25.561Z,12.80
2023-05-19T07:43:27.751Z,12.80
2023-05-19T07:44:31.480Z,12.80
2023-05-19T07:45:33.731Z,12.80
2023-05-19T07:46:38.041Z,12.80
2023-05-19T07:47:40.465Z,12.80
2023-05-19T07:48:42.828Z,12.90
2023-05-19T07:49:45.038Z,12.90
2023-05-19T07:50:47.359Z,13.00
2023-05-19T07:51:49.841Z,13.00
2023-05-19T07:52:52.025Z,13.00
2023-05-19T07:53:54.235Z,13.00
2023-05-19T07:54:56.407Z,13.10
2023-05-19T07:55:58.863Z,13.00
2023-05-19T07:57:01.138Z,13.10
2023-05-19T07:58:03.759Z,13.10
2023-05-19T07:59:08.168Z,13.10
2023-05-19T08:00:12.630Z,13.10
2023-05-19T08:01:14.837Z,13.10
2023-05-19T08:02:19.038Z,13.20
2023-05-19T08:03:23.632Z,13.20
2023-05-19T08:04:26.056Z,13.20
2023-05-19T08:05:29.833Z,13.20
2023-05-19T08:06:32.346Z,13.20
2023-05-19T08:07:34.703Z,13.20
2023-05-19T08:08:36.947Z,13.20
2023-05-19T08:09:39.070Z,13.30
2023-05-19T08:10:41.445Z,13.30
2023-05-19T08:11:44.845Z,13.30
2023-05-19T08:12:47.208Z,13.30
2023-05-19T08:13:49.479Z,13.40
2023-05-19T08:14:52.689Z,13.50
2023-05-19T08:15:59.919Z,13.60
2023-05-19T08:17:02.276Z,13.60
2023-05-19T08:18:06.061Z,13.60
2023-05-19T08:19:08.683Z,13.70
2023-05-19T08:20:12.474Z,13.70
2023-05-19T08:21:14.851Z,13.80
2023-05-19T08:22:17.093Z,13.80
2023-05-19T08:23:19.440Z,13.80
2023-05-19T08:24:21.680Z,13.90
2023-05-19T08:25:23.869Z,13.80
2023-05-19T08:26:26.429Z,13.90
2023-05-19T08:27:28.817Z,13.90
2023-05-19T08:28:31.028Z,13.90
2023-05-19T08:29:33.265Z,13.90
2023-05-19T08:30:35.617Z,13.90
2023-05-19T08:31:37.922Z,13.90
2023-05-19T08:32:40.227Z,13.90
2023-05-19T08:33:43.848Z,13.90
2023-05-19T08:34:46.064Z,13.90
2023-05-19T08:35:48.779Z,13.90
2023-05-19T08:36:50.968Z,13.80
2023-05-19T08:37:53.601Z,13.80
2023-05-19T08:38:55.955Z,13.80
2023-05-19T08:39:58.110Z,13.90
2023-05-19T08:41:00.491Z,14.00
2023-05-19T08:42:02.744Z,14.00
2023-05-19T08:43:04.943Z,14.00
2023-05-19T08:44:07.157Z,14.00
2023-05-19T08:45:10.166Z,14.00
2023-05-19T08:46:15.138Z,13.90
2023-05-19T08:47:17.913Z,13.90
2023-05-19T08:48:21.780Z,13.90
2023-05-19T08:49:31.033Z,13.90
2023-05-19T08:50:39.343Z,13.90
2023-05-19T08:51:50.588Z,14.00
2023-05-19T08:52:57.878Z,14.00
2023-05-19T08:54:12.718Z,14.00
2023-05-19T08:55:22.116Z,14.00
2023-05-19T08:56:25.366Z,14.10
2023-05-19T08:57:28.622Z,14.10
2023-05-19T08:58:32.272Z,14.10
2023-05-19T08:59:34.984Z,14.20
2023-05-19T09:00:37.736Z,14.20
2023-05-19T09:01:42.461Z,14.30
2023-05-19T09:02:55.133Z,14.30
2023-05-19T09:04:04.346Z,14.30
2023-05-19T09:05:09.400Z,14.40
2023-05-19T09:06:15.034Z,14.40
2023-05-19T09:07:18.973Z,14.40
2023-05-19T09:08:21.232Z,14.50
2023-05-19T09:09:23.464Z,14.50
2023-05-19T09:10:27.171Z,14.50
2023-05-19T09:11:30.984Z,14.50
2023-05-19T09:12:34.397Z,14.60
2023-05-19T09:13:36.647Z,14.60
2023-05-19T09:14:39.029Z,14.70
2023-05-19T09:15:42.326Z,14.70
2023-05-19T09:16:49.794Z,14.80
2023-05-19T09:17:52.164Z,14.70
2023-05-19T09:18:56.880Z,14.80
2023-05-19T09:20:02.190Z,14.80
2023-05-19T09:21:07.466Z,14.70
2023-05-19T09:22:09.723Z,14.80
2023-05-19T09:23:14.113Z,14.90
2023-05-19T09:24:17.012Z,14.80
2023-05-19T09:25:19.782Z,14.80
2023-05-19T09:26:23.486Z,14.80
2023-05-19T09:27:25.687Z,14.80
2023-05-19T09:28:30.494Z,14.80
2023-05-19T09:29:32.802Z,14.80
2023-05-19T09:30:35.030Z,14.90
2023-05-19T09:31:37.207Z,14.90
2023-05-19T09:32:39.471Z,14.90
2023-05-19T09:33:45.508Z,14.90
2023-05-19T09:34:48.089Z,14.90
2023-05-19T09:35:50.202Z,14.90
2023-05-19T09:36:54.161Z,14.90
2023-05-19T09:37:56.559Z,14.90
2023-05-19T09:38:58.681Z,15.00
2023-05-19T09:40:00.911Z,15.00
2023-05-19T09:41:03.701Z,15.00
2023-05-19T09:42:06.895Z,15.10
2023-05-19T09:43:09.973Z,15.10
2023-05-19T09:44:23.266Z,15.10
2023-05-19T09:45:28.857Z,15.10
2023-05-19T09:46:31.035Z,15.00
2023-05-19T09:47:39.709Z,15.00
2023-05-19T09:48:42.685Z,15.00
2023-05-19T09:49:47.752Z,15.00
2023-05-19T09:50:51.804Z,15.00
2023-05-19T09:51:56.761Z,15.10
2023-05-19T09:52:59.288Z,15.10
2023-05-19T09:54:01.574Z,15.00
2023-05-19T09:55:05.301Z,15.10
2023-05-19T09:56:10.095Z,15.10
2023-05-19T09:57:12.747Z,15.20
2023-05-19T09:58:18.620Z,15.20
2023-05-19T09:59:25.413Z,15.20
2023-05-19T10:00:28.818Z,15.20
2023-05-19T10:01:33.691Z,15.30
2023-05-19T10:02:37.103Z,15.40
2023-05-19T10:03:40.560Z,15.40
2023-05-19T10:04:43.571Z,15.40
2023-05-19T10:05:46.743Z,15.30
2023-05-19T10:06:53.744Z,15.30
2023-05-19T10:07:57.649Z,15.30
2023-05-19T10:09:00.671Z,15.30
2023-05-19T10:10:03.448Z,15.30
2023-05-19T10:11:06.608Z,15.30
2023-05-19T10:12:11.108Z,15.40
2023-05-19T10:13:13.641Z,15.40
2023-05-19T10:14:16.530Z,15.40
2023-05-19T10:15:22.187Z,15.50
2023-05-19T10:16:28.545Z,15.60
2023-05-19T10:17:32.462Z,15.60
2023-05-19T10:18:37.560Z,15.50
2023-05-19T10:19:43.933Z,15.50
2023-05-19T10:20:47.801Z,15.50
2023-05-19T10:21:51.072Z,15.40
2023-05-19T10:22:53.348Z,15.40
2023-05-19T10:23:56.905Z,15.30
2023-05-19T10:24:59.195Z,15.30
2023-05-19T10:26:05.155Z,15.30
2023-05-19T10:27:11.991Z,15.30
2023-05-19T10:28:17.714Z,15.30
2023-05-19T10:29:23.326Z,15.30
2023-05-19T10:30:29.478Z,15.40
2023-05-19T10:31:33.949Z,15.30
2023-05-19T10:32:38.260Z,15.30
2023-05-19T10:33:56.966Z,15.30
2023-05-19T10:35:20.542Z,15.30
2023-05-19T10:36:45.004Z,15.30
2023-05-19T10:37:56.278Z,15.40
2023-05-19T10:39:06.382Z,15.40
2023-05-19T10:40:13.842Z,15.40
2023-05-19T10:41:24.788Z,15.40
2023-05-19T10:42:36.720Z,15.40
2023-05-19T10:43:54.287Z,15.50
2023-05-19T10:45:05.646Z,15.60
2023-05-19T10:46:07.849Z,15.70
2023-05-19T10:47:12.430Z,15.80
2023-05-19T10:48:16.009Z,15.80
2023-05-19T10:49:21.706Z,15.80
2023-05-19T10:50:24.014Z,15.80
2023-05-19T10:51:31.703Z,15.80
2023-05-19T10:52:37.492Z,15.80
2023-05-19T10:53:46.379Z,15.80
2023-05-19T10:54:50.004Z,15.80
2023-05-19T10:55:54.037Z,15.80
2023-05-19T10:56:58.038Z,15.90
2023-05-19T10:58:00.558Z,16.00
2023-05-19T10:59:03.585Z,16.00
2023-05-19T11:00:30.187Z,15.90
2023-05-19T11:01:33.671Z,16.00
2023-05-19T11:02:41.195Z,15.90
2023-05-19T11:03:47.188Z,15.90
2023-05-19T11:04:51.793Z,16.00
2023-05-19T11:06:14.299Z,16.00
2023-05-19T11:07:19.547Z,16.00
2023-05-19T11:08:32.702Z,16.00
2023-05-19T11:09:41.200Z,16.00
2023-05-19T11:10:48.679Z,16.10
2023-05-19T11:11:52.046Z,16.20
2023-05-19T11:12:58.304Z,16.20
2023-05-19T11:14:01.730Z,16.20
2023-05-19T11:15:04.449Z,16.20
2023-05-19T11:16:08.427Z,16.30
2023-05-19T11:17:15.584Z,16.30
2023-05-19T11:18:19.354Z,16.30
2023-05-19T11:19:28.053Z,16.30
2023-05-19T11:20:35.196Z,16.40
2023-05-19T11:21:48.425Z,16.40
2023-05-19T11:23:07.245Z,16.50
2023-05-19T11:24:09.909Z,16.50
2023-05-19T11:25:12.171Z,16.60
2023-05-19T11:26:17.001Z,16.50
2023-05-19T11:27:25.199Z,16.60
2023-05-19T11:28:29.594Z,16.70
2023-05-19T11:29:34.268Z,16.80
2023-05-19T11:30:37.482Z,16.90
2023-05-19T11:31:40.150Z,16.90
2023-05-19T11:32:42.998Z,16.90
2023-05-19T11:33:45.795Z,17.00
2023-05-19T11:34:49.561Z,16.90
2023-05-19T11:35:51.773Z,16.90
2023-05-19T11:36:54.534Z,16.90
2023-05-19T11:38:01.908Z,16.90
2023-05-19T11:39:06.059Z,16.90
2023-05-19T11:40:09.460Z,16.80
2023-05-19T11:41:11.649Z,16.80
2023-05-19T11:42:16.100Z,16.80
2023-05-19T11:43:18.259Z,16.80
2023-05-19T11:44:20.479Z,16.70
2023-05-19T11:45:26.099Z,16.60
2023-05-19T11:46:28.686Z,16.60
2023-05-19T11:47:47.114Z,16.60
2023-05-19T11:49:04.686Z,16.70
2023-05-19T11:50:14.438Z,16.80
2023-05-19T11:51:19.292Z,16.70
2023-05-19T11:52:24.313Z,16.70
2023-05-19T11:53:26.583Z,16.70
2023-05-19T11:54:33.194Z,16.80
2023-05-19T11:55:36.953Z,16.80
2023-05-19T11:56:41.285Z,16.90
2023-05-19T11:58:02.722Z,17.00
2023-05-19T11:59:05.978Z,17.00
2023-05-19T12:00:09.344Z,16.90
2023-05-19T12:01:11.510Z,16.90
2023-05-19T12:02:19.250Z,16.90
2023-05-19T12:03:23.038Z,17.00
2023-05-19T12:04:25.758Z,17.00
2023-05-19T12:05:29.434Z,17.20
2023-05-19T12:06:31.915Z,17.20
2023-05-19T12:07:34.193Z,17.20
2023-05-19T12:08:36.894Z,17.10
2023-05-19T12:09:39.775Z,17.10
2023-05-19T12:10:42.044Z,17.10
2023-05-19T12:11:44.868Z,17.10
2023-05-19T12:12:52.133Z,17.20
2023-05-19T12:13:58.508Z,17.10
2023-05-19T12:15:04.224Z,17.10
2023-05-19T12:16:08.480Z,17.00
2023-05-19T12:17:12.812Z,16.90
2023-05-19T12:18:15.232Z,16.70
2023-05-19T12:19:17.732Z,16.70
2023-05-19T12:20:20.789Z,16.60
2023-05-19T12:21:23.529Z,16.50
2023-05-19T12:22:36.884Z,16.50
2023-05-19T12:23:40.105Z,16.50
2023-05-19T12:24:43.710Z,16.60
2023-05-19T12:25:46.183Z,16.60
2023-05-19T12:26:50.419Z,16.60
2023-05-19T12:27:58.401Z,16.70
2023-05-19T12:29:00.667Z,16.80
2023-05-19T12:30:04.883Z,16.80
2023-05-19T12:31:07.157Z,16.80
2023-05-19T12:32:09.949Z,17.00
2023-05-19T12:33:13.821Z,17.30
2023-05-19T12:34:16.108Z,17.80
2023-05-19T12:35:19.810Z,18.50
2023-05-19T12:36:24.210Z,19.10
2023-05-19T12:37:30.222Z,19.70
2023-05-19T12:38:32.686Z,20.20
2023-05-19T12:39:34.934Z,20.60
2023-05-19T12:40:41.965Z,21.10
2023-05-19T12:41:45.793Z,21.40
2023-05-19T12:42:49.063Z,21.60
2023-05-19T12:43:52.670Z,21.90
2023-05-19T12:44:55.614Z,22.10
2023-05-19T12:45:58.006Z,22.20
2023-05-19T12:47:00.630Z,22.50
2023-05-19T12:48:04.925Z,22.60
2023-05-19T12:49:07.063Z,22.50
2023-05-19T12:50:10.735Z,22.30
2023-05-19T12:51:16.872Z,22.40
2023-05-19T12:52:19.133Z,22.50
2023-05-19T12:53:21.391Z,22.70
2023-05-19T12:54:23.819Z,23.00
2023-05-19T12:55:26.228Z,23.10
2023-05-19T12:56:28.852Z,23.10
2023-05-19T12:57:33.877Z,23.20
2023-05-19T12:58:37.665Z,23.30
2023-05-19T12:59:43.206Z,23.30
2023-05-19T13:00:50.609Z,23.60
2023-05-19T13:01:56.803Z,23.70
2023-05-19T13:03:00.910Z,23.50
2023-05-19T13:04:05.563Z,23.70
2023-05-19T13:05:09.230Z,23.80
2023-05-19T13:06:11.913Z,23.70
2023-05-19T13:07:14.618Z,23.60
2023-05-19T13:08:18.487Z,23.60
2023-05-19T13:09:21.255Z,23.80
2023-05-19T13:10:24.551Z,24.00
2023-05-19T13:11:26.912Z,24.00
2023-05-19T13:12:29.460Z,24.10
2023-05-19T13:13:31.651Z,24.30
2023-05-19T13:14:33.788Z,24.20
2023-05-19T13:15:38.879Z,24.30
2023-05-19T13:16:41.139Z,24.10
2023-05-19T13:17:46.436Z,24.20
2023-05-19T13:18:48.865Z,24.10
2023-05-19T13:19:51.696Z,24.40
2023-05-19T13:20:54.734Z,24.60
2023-05-19T13:21:57.449Z,24.60
2023-05-19T13:23:00.421Z,24.70
2023-05-19T13:24:04.463Z,24.70
2023-05-19T13:25:08.181Z,24.70
2023-05-19T13:26:12.702Z,24.70
2023-05-19T13:27:14.898Z,24.60
2023-05-19T13:28:17.026Z,24.50
2023-05-19T13:29:19.183Z,24.70
2023-05-19T13:30:22.764Z,24.90
2023-05-19T13:31:26.394Z,25.10
2023-05-19T13:32:28.871Z,25.40
2023-05-19T13:33:32.272Z,25.60
2023-05-19T13:34:34.406Z,25.90
2023-05-19T13:35:39.678Z,25.90
2023-05-19T13:36:42.919Z,25.70
2023-05-19T13:37:45.394Z,25.30
2023-05-19T13:38:47.574Z,25.00
2023-05-19T13:39:49.696Z,24.70
2023-05-19T13:40:51.881Z,24.30
2023-05-19T13:41:54.058Z,24.20
2023-05-19T13:42:56.416Z,24.40
2023-05-19T13:43:59.541Z,24.80
2023-05-19T13:45:02.092Z,25.00
2023-05-19T13:46:04.728Z,25.00
2023-05-19T13:47:08.654Z,25.10
2023-05-19T13:48:12.232Z,25.10
2023-05-19T13:49:14.460Z,25.10
2023-05-19T13:50:16.609Z,25.20
2023-05-19T13:51:19.199Z,25.30
2023-05-19T13:52:21.766Z,25.00
2023-05-19T13:53:24.023Z,24.50
2023-05-19T13:54:26.307Z,23.90
2023-05-19T13:55:28.521Z,23.20
2023-05-19T13:56:31.800Z,22.90